createdAt,value
2023-04-09T00:01:11.283Z,8.85
2023-04-09T00:03:12.866Z,8.83
2023-04-09T00:05:14.561Z,8.85
2023-04-09T00:07:16.254Z,8.87
2023-04-09T00:09:17.763Z,8.85
2023-04-09T00:11:19.215Z,8.87
2023-04-09T00:13:31.696Z,8.87
2023-04-09T00:15:37.505Z,8.87
2023-04-09T00:17:39.001Z,8.87
2023-04-09T00:19:40.505Z,8.92
2023-04-09T00:21:42.163Z,8.96
2023-04-09T00:23:43.689Z,8.95
2023-04-09T00:25:45.358Z,8.98
2023-04-09T00:27:47.129Z,8.99
2023-04-09T00:29:48.762Z,9.04
2023-04-09T00:31:50.376Z,9.00
2023-04-09T00:33:51.896Z,8.99
2023-04-09T00:35:53.442Z,8.89
2023-04-09T00:37:54.947Z,8.88
2023-04-09T00:39:56.514Z,8.87
2023-04-09T00:41:59.105Z,8.89
2023-04-09T00:44:00.715Z,8.92
2023-04-09T00:46:02.249Z,8.94
2023-04-09T00:48:03.898Z,9.01
2023-04-09T00:50:05.655Z,9.04
2023-04-09T00:52:07.418Z,8.89
2023-04-09T00:54:08.944Z,8.69
2023-04-09T00:56:11.800Z,8.68
2023-04-09T00:58:13.696Z,8.71
2023-04-09T01:00:15.463Z,8.78
2023-04-09T01:02:17.117Z,8.77
2023-04-09T01:04:18.673Z,8.77
2023-04-09T01:06:20.492Z,8.85
2023-04-09T01:08:29.957Z,8.87
2023-04-09T01:10:36.524Z,8.88
2023-04-09T01:12:47.233Z,8.89
2023-04-09T01:15:07.569Z,8.83
2023-04-09T01:17:13.079Z,8.77
2023-04-09T01:19:26.920Z,8.76
2023-04-09T01:21:31.352Z,8.74
2023-04-09T01:23:37.734Z,8.80
2023-04-09T01:25:41.905Z,8.75
2023-04-09T01:28:06.317Z,8.78
2023-04-09T01:30:07.865Z,8.83
2023-04-09T01:32:09.469Z,8.77
2023-04-09T01:34:11.102Z,8.81
2023-04-09T01:36:12.652Z,8.85
2023-04-09T01:38:14.916Z,8.90
2023-04-09T01:40:16.438Z,8.92
2023-04-09T01:42:17.909Z,8.95
2023-04-09T01:44:19.636Z,8.96
2023-04-09T01:46:21.853Z,8.98
2023-04-09T01:48:23.451Z,8.97
2023-04-09T01:50:24.982Z,8.95
2023-04-09T01:52:26.480Z,8.91
2023-04-09T01:54:28.165Z,8.93
2023-04-09T01:56:39.850Z,8.94
2023-04-09T01:58:41.322Z,8.97
2023-04-09T02:00:45.973Z,8.97
2023-04-09T02:03:06.333Z,8.97
2023-04-09T02:05:08.281Z,8.90
2023-04-09T02:07:12.899Z,8.80
2023-04-09T02:09:14.386Z,8.70
2023-04-09T02:11:15.954Z,8.71
2023-04-09T02:13:17.448Z,8.71
2023-04-09T02:15:21.646Z,8.71
2023-04-09T02:17:23.171Z,8.68
2023-04-09T02:19:24.720Z,8.70
2023-04-09T02:21:27.113Z,8.69
2023-04-09T02:23:28.605Z,8.73
2023-04-09T02:25:30.132Z,8.70
2023-04-09T02:27:31.580Z,8.70
2023-04-09T02:29:33.068Z,8.67
2023-04-09T02:31:34.609Z,8.63
2023-04-09T02:33:36.117Z,8.65
2023-04-09T02:35:37.649Z,8.68
2023-04-09T02:37:39.236Z,8.71
2023-04-09T02:39:40.858Z,8.77
2023-04-09T02:41:42.329Z,8.77
2023-04-09T02:43:43.804Z,8.75
2023-04-09T02:45:45.562Z,8.75
2023-04-09T02:47:47.233Z,8.78
2023-04-09T02:49:48.794Z,8.81
2023-04-09T02:51:50.315Z,8.80
2023-04-09T02:53:51.885Z,8.75
2023-04-09T02:55:53.402Z,8.71
2023-04-09T02:57:54.833Z,8.70
2023-04-09T02:59:56.292Z,8.72
2023-04-09T03:01:57.814Z,8.70
2023-04-09T03:04:00.199Z,8.64
2023-04-09T03:06:01.765Z,8.60
2023-04-09T03:08:03.331Z,8.59
2023-04-09T03:10:05.163Z,8.54
2023-04-09T03:12:06.670Z,8.49
2023-04-09T03:14:08.169Z,8.50
2023-04-09T03:16:10.395Z,8.46
2023-04-09T03:18:11.896Z,8.45
2023-04-09T03:20:13.347Z,8.45
2023-04-09T03:22:14.816Z,8.45
2023-04-09T03:24:16.320Z,8.43
2023-04-09T03:26:17.834Z,8.42
2023-04-09T03:28:19.331Z,8.39
2023-04-09T03:30:20.903Z,8.40
2023-04-09T03:32:22.400Z,8.43
2023-04-09T03:34:24.663Z,8.37
2023-04-09T03:36:27.908Z,8.37
2023-04-09T03:38:29.383Z,8.34
2023-04-09T03:40:31.120Z,8.39
2023-04-09T03:42:32.774Z,8.37
2023-04-09T03:44:34.233Z,8.36
2023-04-09T03:46:35.965Z,8.40
2023-04-09T03:48:37.513Z,8.43
2023-04-09T03:50:39.909Z,8.43
2023-04-09T03:52:41.578Z,8.34
2023-04-09T03:54:43.681Z,8.32
2023-04-09T03:56:45.455Z,8.31
2023-04-09T03:58:48.542Z,8.33
2023-04-09T04:00:50.172Z,8.27
2023-04-09T04:02:52.206Z,8.25
2023-04-09T04:04:53.836Z,8.23
2023-04-09T04:06:55.494Z,8.17
2023-04-09T04:08:57.020Z,8.19
2023-04-09T04:11:03.395Z,8.16
2023-04-09T04:13:06.538Z,8.18
2023-04-09T04:15:08.336Z,8.18
2023-04-09T04:17:12.892Z,8.23
2023-04-09T04:19:14.374Z,8.25
2023-04-09T04:21:16.391Z,8.27
2023-04-09T04:23:17.939Z,8.25
2023-04-09T04:25:19.413Z,8.27
2023-04-09T04:27:20.931Z,8.24
2023-04-09T04:29:22.452Z,8.30
2023-04-09T04:31:23.923Z,8.27
2023-04-09T04:33:25.461Z,8.31
2023-04-09T04:35:26.992Z,8.39
2023-04-09T04:37:28.517Z,8.44
2023-04-09T04:39:30.925Z,8.46
2023-04-09T04:41:32.460Z,8.51
2023-04-09T04:43:34.006Z,8.51
2023-04-09T04:45:35.594Z,8.54
2023-04-09T04:47:37.248Z,8.54
2023-04-09T04:49:38.803Z,8.51
2023-04-09T04:51:40.297Z,8.52
2023-04-09T04:53:41.748Z,8.61
2023-04-09T04:55:43.194Z,8.72
2023-04-09T04:57:44.721Z,8.78
2023-04-09T04:59:46.211Z,8.70
2023-04-09T05:01:47.756Z,8.73
2023-04-09T05:03:49.511Z,8.65
2023-04-09T05:05:51.109Z,8.70
2023-04-09T05:07:52.611Z,8.71
2023-04-09T05:09:54.120Z,8.75
2023-04-09T05:11:57.038Z,8.82
2023-04-09T05:13:58.505Z,8.76
2023-04-09T05:16:00.075Z,8.80
2023-04-09T05:18:01.987Z,8.89
2023-04-09T05:20:03.559Z,8.83
2023-04-09T05:22:05.102Z,8.74
2023-04-09T05:24:06.820Z,8.68
2023-04-09T05:26:08.383Z,8.70
2023-04-09T05:28:11.482Z,8.72
2023-04-09T05:30:13.484Z,8.71
2023-04-09T05:32:24.901Z,8.65
2023-04-09T05:34:27.182Z,8.64
2023-04-09T05:36:28.765Z,8.70
2023-04-09T05:38:30.283Z,8.72
2023-04-09T05:40:31.827Z,8.80
2023-04-09T05:42:33.400Z,8.84
2023-04-09T05:44:34.937Z,8.94
2023-04-09T05:46:36.516Z,8.97
2023-04-09T05:48:38.082Z,8.94
2023-04-09T05:50:51.548Z,8.82
2023-04-09T05:52:55.944Z,8.73
2023-04-09T05:54:57.440Z,8.75
2023-04-09T05:56:58.938Z,8.70
2023-04-09T05:59:00.626Z,8.68
2023-04-09T06:01:02.125Z,8.48
2023-04-09T06:03:03.818Z,8.65
2023-04-09T06:05:05.586Z,8.84
2023-04-09T06:07:07.050Z,8.97
2023-04-09T06:09:08.551Z,9.10
2023-04-09T06:11:10.577Z,9.16
2023-04-09T06:13:12.077Z,9.19
2023-04-09T06:15:13.546Z,9.25
2023-04-09T06:17:15.056Z,9.37
2023-04-09T06:19:16.839Z,9.37
2023-04-09T06:21:18.357Z,9.06
2023-04-09T06:23:20.202Z,9.10
2023-04-09T06:25:21.765Z,9.26
2023-04-09T06:27:23.341Z,9.33
2023-04-09T06:29:24.831Z,9.38
2023-04-09T06:31:26.576Z,9.38
2023-04-09T06:33:28.121Z,9.47
2023-04-09T06:35:29.759Z,9.55
2023-04-09T06:37:31.262Z,9.75
2023-04-09T06:39:33.350Z,9.95
2023-04-09T06:41:34.854Z,10.15
2023-04-09T06:43:37.507Z,10.14
2023-04-09T06:45:40.964Z,10.25
2023-04-09T06:47:42.811Z,10.38
2023-04-09T06:49:44.318Z,10.39
2023-04-09T06:51:46.612Z,10.30
2023-04-09T06:53:48.390Z,10.42
2023-04-09T06:55:50.368Z,10.58
2023-04-09T06:57:51.890Z,10.70
2023-04-09T06:59:53.327Z,10.51
2023-04-09T07:01:54.920Z,10.21
2023-04-09T07:03:56.872Z,10.17
2023-04-09T07:05:59.005Z,9.89
2023-04-09T07:08:00.513Z,9.92
2023-04-09T07:10:02.280Z,10.03
2023-04-09T07:12:03.821Z,10.22
2023-04-09T07:14:05.560Z,10.35
2023-04-09T07:16:07.161Z,10.34
2023-04-09T07:18:08.814Z,10.53
2023-04-09T07:20:11.023Z,10.60
2023-04-09T07:22:12.574Z,10.70
2023-04-09T07:24:14.079Z,10.81
2023-04-09T07:26:15.602Z,10.91
2023-04-09T07:28:17.217Z,10.76
2023-04-09T07:30:18.889Z,10.71
2023-04-09T07:32:20.537Z,10.68
2023-04-09T07:34:22.034Z,10.74
2023-04-09T07:36:23.560Z,10.83
2023-04-09T07:38:25.128Z,10.99
2023-04-09T07:40:27.207Z,10.94
2023-04-09T07:42:28.670Z,10.81
2023-04-09T07:44:30.508Z,10.56
2023-04-09T07:46:32.053Z,10.56
2023-04-09T07:48:33.578Z,10.72
2023-04-09T07:50:35.027Z,10.84
2023-04-09T07:52:36.625Z,10.97
2023-04-09T07:54:38.059Z,11.27
2023-04-09T07:56:39.536Z,11.40
2023-04-09T07:58:41.148Z,11.56
2023-04-09T08:00:42.693Z,11.42
2023-04-09T08:02:44.607Z,11.71
2023-04-09T08:04:46.482Z,11.91
2023-04-09T08:06:50.801Z,12.22
2023-04-09T08:08:53.572Z,12.31
2023-04-09T08:10:55.669Z,12.23
2023-04-09T08:12:57.126Z,11.73
2023-04-09T08:14:58.592Z,11.56
2023-04-09T08:17:00.640Z,11.70
2023-04-09T08:19:02.156Z,11.78
2023-04-09T08:21:06.574Z,11.67
2023-04-09T08:23:08.369Z,12.01
2023-04-09T08:25:09.949Z,12.17
2023-04-09T08:27:11.475Z,12.23
2023-04-09T08:29:13.739Z,12.08
2023-04-09T08:31:15.795Z,11.97
2023-04-09T08:33:17.323Z,11.96
2023-04-09T08:35:19.185Z,11.90
2023-04-09T08:37:20.741Z,11.95
2023-04-09T08:39:22.381Z,11.82
2023-04-09T08:41:29.413Z,11.72
2023-04-09T08:43:47.300Z,11.60
2023-04-09T08:45:53.846Z,11.58
2023-04-09T08:47:55.581Z,11.12
2023-04-09T08:49:57.113Z,11.24
2023-04-09T08:51:58.773Z,11.39
2023-04-09T08:54:27.192Z,11.13
2023-04-09T08:56:22.417Z,11.40
2023-04-09T08:58:23.895Z,11.08
2023-04-09T09:00:25.526Z,11.19
2023-04-09T09:02:27.159Z,11.04
2023-04-09T09:04:30.654Z,11.11
2023-04-09T09:06:33.570Z,11.12
2023-04-09T09:08:35.336Z,10.97
2023-04-09T09:10:37.399Z,10.92
2023-04-09T09:12:39.717Z,10.64
2023-04-09T09:14:41.246Z,10.71
2023-04-09T09:16:43.927Z,10.82
2023-04-09T09:18:45.451Z,10.84
2023-04-09T09:20:47.174Z,10.94
2023-04-09T09:22:54.742Z,10.54
2023-04-09T09:24:57.516Z,10.60
2023-04-09T09:26:59.123Z,11.04
2023-04-09T09:29:00.660Z,11.35
2023-04-09T09:31:08.130Z,11.38
2023-04-09T09:33:10.224Z,11.45
2023-04-09T09:35:14.649Z,11.62
2023-04-09T09:37:28.285Z,12.00
2023-04-09T09:39:43.386Z,12.33
2023-04-09T09:41:45.330Z,12.33
2023-04-09T09:43:46.902Z,11.87
2023-04-09T09:45:48.692Z,11.98
2023-04-09T09:47:50.601Z,12.25
2023-04-09T09:49:52.124Z,12.43
2023-04-09T09:51:53.737Z,12.62
2023-04-09T09:53:56.628Z,12.76
2023-04-09T09:55:58.115Z,12.81
2023-04-09T09:58:04.050Z,12.91
2023-04-09T10:00:05.972Z,13.10
2023-04-09T10:02:10.227Z,13.00
2023-04-09T10:04:13.919Z,12.74
2023-04-09T10:06:15.772Z,12.62
2023-04-09T10:08:17.349Z,12.90
2023-04-09T10:10:18.932Z,12.93
2023-04-09T10:12:22.753Z,12.74
2023-04-09T10:14:24.464Z,12.84
2023-04-09T10:16:27.326Z,13.01
2023-04-09T10:18:29.912Z,12.98
2023-04-09T10:20:36.274Z,12.94
2023-04-09T10:22:37.793Z,12.78
2023-04-09T10:24:39.261Z,12.93
2023-04-09T10:26:41.219Z,12.47
2023-04-09T10:28:42.717Z,12.63
2023-04-09T10:30:44.752Z,12.60
2023-04-09T10:32:46.255Z,12.66
2023-04-09T10:34:48.641Z,12.79
2023-04-09T10:36:53.035Z,12.94
2023-04-09T10:38:54.652Z,12.80
2023-04-09T10:40:56.424Z,12.94
2023-04-09T10:42:58.131Z,13.27
2023-04-09T10:45:09.832Z,13.21
2023-04-09T10:47:11.985Z,13.38
2023-04-09T10:49:17.944Z,13.50
2023-04-09T10:51:19.553Z,13.50
2023-04-09T10:53:22.032Z,13.50
2023-04-09T10:55:39.403Z,13.66
2023-04-09T10:57:41.515Z,13.91
2023-04-09T10:59:45.143Z,13.85
2023-04-09T11:01:55.951Z,13.74
2023-04-09T11:06:30.929Z,13.66
2023-04-09T11:08:32.717Z,13.57
2023-04-09T11:10:34.222Z,13.78
2023-04-09T11:12:35.848Z,13.89
2023-04-09T11:14:37.349Z,14.06
2023-04-09T11:16:38.920Z,14.14
2023-04-09T11:18:40.530Z,14.12
2023-04-09T11:20:41.981Z,14.06
2023-04-09T11:22:43.467Z,14.06
2023-04-09T11:24:46.695Z,14.00
2023-04-09T11:26:48.799Z,14.07
2023-04-09T11:28:50.789Z,14.09
2023-04-09T11:30:52.463Z,14.05
2023-04-09T11:32:54.100Z,14.01
2023-04-09T11:34:57.140Z,13.91
2023-04-09T11:36:59.855Z,13.44
2023-04-09T11:39:02.069Z,13.14
2023-04-09T11:41:03.615Z,13.11
2023-04-09T11:43:07.988Z,13.22
2023-04-09T11:45:10.712Z,13.32
2023-04-09T11:47:12.906Z,13.37
2023-04-09T11:49:14.778Z,13.28
2023-04-09T11:51:16.536Z,13.38
2023-04-09T11:53:21.582Z,13.41
2023-04-09T11:55:26.699Z,13.44
2023-04-09T11:57:54.686Z,13.49
2023-04-09T11:59:56.588Z,13.58
2023-04-09T12:01:58.516Z,13.65
2023-04-09T12:04:00.775Z,13.58
2023-04-09T12:06:03.071Z,13.49
2023-04-09T12:08:05.522Z,13.55
2023-04-09T12:10:10.521Z,13.65
2023-04-09T12:12:12.111Z,13.66
2023-04-09T12:14:14.269Z,13.68
2023-04-09T12:16:19.298Z,13.56
2023-04-09T12:18:21.581Z,13.45
2023-04-09T12:20:33.714Z,13.44
2023-04-09T12:22:37.691Z,13.61
2023-04-09T12:24:39.142Z,13.72
2023-04-09T12:26:40.764Z,13.89
2023-04-09T12:28:42.250Z,13.98
2023-04-09T12:30:44.008Z,14.04
2023-04-09T12:32:46.181Z,14.12
2023-04-09T12:34:49.916Z,14.34
2023-04-09T12:36:51.637Z,14.49
2023-04-09T12:38:53.418Z,14.44
2023-04-09T12:40:55.018Z,14.40
2023-04-09T12:42:56.619Z,14.39
2023-04-09T12:44:58.159Z,14.43
2023-04-09T12:47:00.243Z,14.33
2023-04-09T12:49:01.731Z,14.36
2023-04-09T12:51:03.349Z,14.36
2023-04-09T12:53:04.843Z,14.26
2023-04-09T12:55:06.919Z,14.26
2023-04-09T12:57:08.347Z,14.29
2023-04-09T12:59:09.801Z,13.92
2023-04-09T13:01:11.403Z,13.74
2023-04-09T13:03:13.272Z,13.78
2023-04-09T13:05:15.060Z,13.65
2023-04-09T13:07:17.603Z,13.57
2023-04-09T13:09:19.130Z,13.43
2023-04-09T13:11:20.871Z,13.39
2023-04-09T13:13:22.726Z,13.46
2023-04-09T13:15:24.214Z,13.40
2023-04-09T13:17:26.048Z,13.33
2023-04-09T13:19:28.288Z,13.45
2023-04-09T13:21:29.717Z,13.52
2023-04-09T13:23:31.202Z,13.50
2023-04-09T13:25:32.717Z,13.37
2023-04-09T13:27:34.210Z,13.37
2023-04-09T13:29:36.167Z,13.35
2023-04-09T13:31:37.732Z,13.36
2023-04-09T13:33:39.281Z,13.38
2023-04-09T13:35:41.029Z,13.35
2023-04-09T13:37:42.617Z,13.31
2023-04-09T13:39:44.801Z,13.35
2023-04-09T13:41:46.371Z,13.30
2023-04-09T13:43:47.875Z,13.29
2023-04-09T13:45:49.968Z,13.09
2023-04-09T13:47:51.572Z,12.90
2023-04-09T13:49:53.313Z,12.91
2023-04-09T13:51:55.791Z,12.96
2023-04-09T13:53:57.790Z,13.06
2023-04-09T13:55:59.335Z,13.03
2023-04-09T13:58:00.921Z,12.85
2023-04-09T14:00:04.804Z,12.86
2023-04-09T14:02:06.660Z,12.85
2023-04-09T14:04:08.436Z,12.83
2023-04-09T14:06:10.086Z,12.88
2023-04-09T14:08:12.207Z,12.88
2023-04-09T14:10:13.651Z,12.88
2023-04-09T14:12:15.105Z,12.81
2023-04-09T14:14:16.803Z,12.84
2023-04-09T14:16:19.742Z,12.67
2023-04-09T14:18:21.444Z,11.87
2023-04-09T14:20:24.723Z,11.62
2023-04-09T14:22:26.693Z,11.50
2023-04-09T14:24:28.282Z,11.50
2023-04-09T14:26:29.820Z,11.61
2023-04-09T14:28:32.279Z,11.77
2023-04-09T14:30:33.825Z,11.77
2023-04-09T14:32:35.443Z,11.76
2023-04-09T14:34:37.065Z,11.48
2023-04-09T14:36:38.641Z,11.31
2023-04-09T14:38:40.371Z,11.14
2023-04-09T14:40:42.115Z,11.07
2023-04-09T14:42:43.661Z,11.10
2023-04-09T14:44:45.457Z,11.13
2023-04-09T14:46:46.982Z,11.25
2023-04-09T14:48:48.502Z,11.23
2023-04-09T14:50:51.826Z,11.17
2023-04-09T14:52:53.395Z,11.21
2023-04-09T14:54:54.889Z,11.33
2023-04-09T14:56:58.394Z,11.28
2023-04-09T14:59:00.060Z,11.40
2023-04-09T15:01:01.701Z,11.29
2023-04-09T15:03:04.043Z,11.29
2023-04-09T15:05:06.095Z,11.30
2023-04-09T15:07:07.602Z,11.37
2023-04-09T15:09:09.175Z,11.53
2023-04-09T15:11:14.764Z,11.46
2023-04-09T15:13:16.369Z,11.59
2023-04-09T15:15:17.852Z,11.78
2023-04-09T15:17:19.387Z,11.97
2023-04-09T15:19:20.948Z,12.10
2023-04-09T15:21:22.389Z,12.26
2023-04-09T15:23:23.925Z,12.41
2023-04-09T15:25:25.523Z,12.56
2023-04-09T15:27:27.042Z,12.71
2023-04-09T15:29:28.528Z,12.76
2023-04-09T15:31:30.633Z,12.78
2023-04-09T15:33:32.562Z,12.76
2023-04-09T15:35:34.643Z,12.78
2023-04-09T15:37:36.165Z,12.24
2023-04-09T15:39:37.812Z,11.89
2023-04-09T15:41:39.414Z,11.95
2023-04-09T15:43:41.033Z,11.88
2023-04-09T15:45:42.659Z,11.98
2023-04-09T15:47:44.869Z,11.80
2023-04-09T15:49:46.620Z,11.76
2023-04-09T15:51:48.434Z,11.43
2023-04-09T15:53:50.012Z,11.18
2023-04-09T15:55:51.557Z,10.97
2023-04-09T15:57:53.133Z,10.89
2023-04-09T15:59:54.571Z,10.91
2023-04-09T16:01:56.250Z,11.02
2023-04-09T16:03:57.824Z,10.88
2023-04-09T16:06:01.760Z,10.96
2023-04-09T16:08:03.628Z,11.13
2023-04-09T16:10:05.542Z,11.32
2023-04-09T16:12:07.111Z,11.42
2023-04-09T16:14:09.430Z,11.39
2023-04-09T16:16:10.976Z,11.30
2023-04-09T16:18:12.600Z,11.08
2023-04-09T16:20:14.266Z,10.85
2023-04-09T16:22:15.725Z,10.84
2023-04-09T16:24:17.183Z,10.40
2023-04-09T16:26:18.719Z,10.12
2023-04-09T16:28:23.704Z,10.19
2023-04-09T16:30:25.461Z,9.97
2023-04-09T16:32:27.491Z,9.81
2023-04-09T16:34:31.492Z,9.74
2023-04-09T16:36:37.010Z,9.67
2023-04-09T16:38:38.600Z,9.70
2023-04-09T16:40:40.470Z,9.63
2023-04-09T16:42:42.064Z,9.66
2023-04-09T16:44:43.598Z,9.65
2023-04-09T16:46:45.143Z,9.59
2023-04-09T16:48:46.677Z,9.60
2023-04-09T16:50:49.259Z,9.63
2023-04-09T16:52:50.904Z,9.68
2023-04-09T16:54:52.460Z,9.56
2023-04-09T16:56:53.880Z,9.65
2023-04-09T16:58:55.721Z,9.66
2023-04-09T17:00:57.885Z,9.69
2023-04-09T17:02:59.703Z,9.72
2023-04-09T17:05:01.410Z,9.77
2023-04-09T17:07:03.493Z,9.92
2023-04-09T17:09:06.589Z,10.06
2023-04-09T17:11:08.190Z,10.27
2023-04-09T17:13:09.703Z,10.41
2023-04-09T17:15:11.399Z,10.52
2023-04-09T17:17:12.952Z,10.61
2023-04-09T17:19:14.748Z,10.73
2023-04-09T17:21:16.221Z,10.84
2023-04-09T17:23:17.759Z,10.92
2023-04-09T17:25:20.494Z,10.82
2023-04-09T17:27:22.020Z,10.51
2023-04-09T17:29:23.439Z,10.48
2023-04-09T17:31:25.130Z,10.42
2023-04-09T17:33:27.310Z,10.48
2023-04-09T17:35:28.769Z,10.52
2023-04-09T17:37:30.331Z,10.55
2023-04-09T17:39:31.818Z,10.52
2023-04-09T17:41:33.280Z,10.45
2023-04-09T17:43:34.803Z,10.52
2023-04-09T17:45:36.305Z,10.62
2023-04-09T17:47:39.222Z,10.59
2023-04-09T17:49:40.813Z,10.49
2023-04-09T17:51:43.431Z,10.47
2023-04-09T17:53:45.070Z,10.50
2023-04-09T17:55:50.974Z,10.46
2023-04-09T17:57:52.566Z,10.50
2023-04-09T17:59:54.117Z,10.40
2023-04-09T18:01:56.780Z,10.30
2023-04-09T18:03:59.322Z,10.33
2023-04-09T18:06:01.025Z,10.30
2023-04-09T18:08:02.577Z,10.15
2023-04-09T18:10:04.404Z,10.16
2023-04-09T18:12:06.291Z,10.02
2023-04-09T18:14:08.194Z,9.82
2023-04-09T18:16:10.735Z,9.89
2023-04-09T18:18:12.227Z,9.90
2023-04-09T18:20:15.473Z,9.94
2023-04-09T18:22:16.970Z,10.06
2023-04-09T18:24:18.512Z,10.18
2023-04-09T18:26:20.212Z,9.94
2023-04-09T18:28:22.016Z,9.82
2023-04-09T18:30:23.532Z,9.81
2023-04-09T18:32:25.451Z,9.65
2023-04-09T18:34:27.138Z,9.77
2023-04-09T18:36:29.015Z,9.80
2023-04-09T18:38:30.546Z,9.93
2023-04-09T18:40:32.292Z,9.84
2023-04-09T18:42:33.819Z,9.87
2023-04-09T18:44:37.653Z,9.90
2023-04-09T18:46:39.197Z,9.86
2023-04-09T18:48:40.721Z,9.78
2023-04-09T18:50:42.170Z,9.78
2023-04-09T18:52:43.663Z,9.74
2023-04-09T18:54:45.948Z,9.79
2023-04-09T18:56:47.446Z,9.79
2023-04-09T18:58:49.243Z,9.94
2023-04-09T19:00:51.750Z,10.05
2023-04-09T19:02:53.804Z,10.19
2023-04-09T19:04:55.825Z,10.36
2023-04-09T19:06:57.422Z,10.48
2023-04-09T19:08:59.122Z,10.57
2023-04-09T19:11:00.807Z,10.65
2023-04-09T19:13:02.787Z,10.75
2023-04-09T19:15:04.978Z,10.77
2023-04-09T19:17:06.846Z,10.82
2023-04-09T19:19:08.395Z,10.86
2023-04-09T19:21:09.931Z,10.85
2023-04-09T19:23:11.453Z,10.86
2023-04-09T19:25:13.168Z,10.91
2023-04-09T19:27:14.742Z,10.88
2023-04-09T19:29:16.230Z,10.85
2023-04-09T19:31:17.814Z,10.88
2023-04-09T19:33:22.979Z,10.88
2023-04-09T19:35:24.493Z,10.90
2023-04-09T19:37:28.081Z,10.95
2023-04-09T19:39:29.654Z,10.81
2023-04-09T19:41:31.166Z,10.61
2023-04-09T19:43:32.726Z,10.50
2023-04-09T19:45:34.187Z,10.42
2023-04-09T19:47:35.761Z,10.35
2023-04-09T19:49:37.342Z,10.38
2023-04-09T19:51:38.874Z,10.45
2023-04-09T19:53:41.142Z,10.42
2023-04-09T19:55:42.575Z,10.47
2023-04-09T19:57:45.991Z,10.42
2023-04-09T19:59:49.734Z,10.38
2023-04-09T20:01:51.548Z,10.33
2023-04-09T20:03:53.328Z,10.28
2023-04-09T20:05:54.879Z,10.25
2023-04-09T20:07:56.430Z,10.30
2023-04-09T20:09:57.916Z,10.29
2023-04-09T20:12:04.449Z,10.35
2023-04-09T20:14:06.071Z,10.30
2023-04-09T20:16:07.614Z,10.31
2023-04-09T20:18:09.228Z,10.35
2023-04-09T20:20:11.810Z,10.41
2023-04-09T20:22:13.326Z,10.32
2023-04-09T20:24:16.212Z,10.33
2023-04-09T20:26:17.754Z,10.36
2023-04-09T20:28:19.295Z,10.36
2023-04-09T20:30:21.261Z,10.25
2023-04-09T20:32:22.885Z,10.23
2023-04-09T20:34:26.961Z,10.17
2023-04-09T20:36:28.615Z,10.16
2023-04-09T20:38:30.502Z,10.15
2023-04-09T20:40:32.074Z,10.14
2023-04-09T20:42:33.619Z,10.13
2023-04-09T20:44:35.107Z,10.16
2023-04-09T20:46:36.658Z,10.16
2023-04-09T20:48:38.151Z,10.08
2023-04-09T20:50:39.621Z,10.09
2023-04-09T20:52:41.198Z,10.10
2023-04-09T20:54:43.168Z,10.17
2023-04-09T20:56:44.832Z,10.19
2023-04-09T20:58:46.524Z,10.21
2023-04-09T21:00:49.644Z,10.17
2023-04-09T21:02:51.679Z,10.15
2023-04-09T21:04:53.322Z,10.12
2023-04-09T21:06:54.882Z,10.16
2023-04-09T21:08:57.968Z,10.18
2023-04-09T21:11:00.431Z,10.19
2023-04-09T21:13:02.019Z,10.18
2023-04-09T21:15:03.623Z,10.05
2023-04-09T21:17:05.329Z,10.05
2023-04-09T21:19:09.932Z,10.08
2023-04-09T21:21:11.726Z,10.04
2023-04-09T21:23:13.405Z,10.06
2023-04-09T21:25:16.780Z,10.00
2023-04-09T21:27:18.261Z,10.00
2023-04-09T21:29:21.179Z,10.01
2023-04-09T21:31:24.028Z,10.03
2023-04-09T21:33:26.997Z,10.03
2023-04-09T21:35:29.383Z,10.06
2023-04-09T21:37:33.058Z,9.91
2023-04-09T21:39:34.855Z,9.85
2023-04-09T21:41:36.737Z,9.77
2023-04-09T21:43:38.576Z,9.77
2023-04-09T21:45:40.291Z,9.76
2023-04-09T21:47:41.901Z,9.68
2023-04-09T21:49:43.504Z,9.65
2023-04-09T21:51:45.532Z,9.64
2023-04-09T21:53:47.669Z,9.66
2023-04-09T21:55:49.165Z,9.64
2023-04-09T21:57:53.633Z,9.66
2023-04-09T21:59:55.373Z,9.66
2023-04-09T22:01:56.959Z,9.69
2023-04-09T22:03:59.770Z,9.74
2023-04-09T22:06:01.352Z,9.70
2023-04-09T22:08:02.912Z,9.49
2023-04-09T22:10:04.578Z,9.45
2023-04-09T22:12:06.048Z,9.53
2023-04-09T22:14:07.579Z,9.60
2023-04-09T22:16:09.220Z,9.67
2023-04-09T22:18:10.704Z,9.66
2023-04-09T22:20:12.244Z,9.64
2023-04-09T22:22:15.126Z,9.69
2023-04-09T22:24:18.240Z,9.70
2023-04-09T22:26:19.872Z,9.64
2023-04-09T22:28:21.439Z,9.60
2023-04-09T22:30:24.453Z,9.51
2023-04-09T22:32:25.920Z,9.45
2023-04-09T22:34:27.700Z,9.45
2023-04-09T22:36:29.225Z,9.43
2023-04-09T22:38:31.169Z,9.36
2023-04-09T22:40:32.732Z,9.31
2023-04-09T22:42:34.186Z,9.20
2023-04-09T22:44:35.834Z,9.14
2023-04-09T22:46:37.354Z,9.12
2023-04-09T22:48:44.473Z,9.19
2023-04-09T22:50:47.094Z,9.27
2023-04-09T22:52:48.615Z,9.27
2023-04-09T22:54:50.146Z,9.24
2023-04-09T22:56:51.753Z,9.23
2023-04-09T22:58:53.349Z,9.19
2023-04-09T23:00:54.997Z,9.19
2023-04-09T23:02:56.706Z,9.09
2023-04-09T23:04:58.236Z,8.94
2023-04-09T23:06:59.776Z,8.94
2023-04-09T23:09:01.357Z,9.00
2023-04-09T23:11:02.873Z,8.97
2023-04-09T23:13:04.399Z,8.91
2023-04-09T23:15:06.515Z,8.81
2023-04-09T23:17:08.015Z,8.67
2023-04-09T23:19:09.496Z,8.68
2023-04-09T23:21:11.154Z,8.60
2023-04-09T23:23:12.607Z,8.66
2023-04-09T23:25:14.779Z,8.81
2023-04-09T23:27:16.217Z,8.84
2023-04-09T23:29:17.970Z,8.90
2023-04-09T23:31:19.502Z,8.95
2023-04-09T23:33:21.088Z,9.03
2023-04-09T23:35:22.651Z,9.10
2023-04-09T23:37:24.245Z,9.13
2023-04-09T23:39:25.704Z,9.13
2023-04-09T23:41:27.221Z,9.14
2023-04-09T23:43:28.798Z,9.17
2023-04-09T23:45:30.480Z,9.20
2023-04-09T23:47:33.749Z,9.19
2023-04-09T23:49:35.649Z,9.17
2023-04-09T23:51:37.178Z,9.17
2023-04-09T23:53:38.643Z,9.08
2023-04-09T23:55:41.512Z,9.09
2023-04-09T23:57:43.655Z,9.08
2023-04-09T23:59:45.156Z,9.14
